Date,TemperatureHighF,TemperatureAvgF,TemperatureLowF,DewpointHighF,DewpointAvgF,DewpointLowF,HumidityHigh,HumidityAvg,HumidityLow,PressureMaxIn,PressureMinIn,WindSpeedMaxMPH,WindSpeedAvgMPH,GustSpeedMaxMPH,PrecipitationSumIn
2013-1-1,55,36,24,35,24,19,93,70,24,30.33,30.23,10,2,17,0.01
2013-1-2,56,34,22,30,24,19,90,71,27,30.30,30.18,3,0,5,0.00
2013-1-3,54,33,21,35,26,19,90,78,38,30.33,30.23,2,0,4,0.00
2013-1-4,58,37,25,36,29,23,92,76,34,30.35,30.20,3,0,3,0.01
2013-1-5,43,36,26,41,33,24,96,90,75,30.32,30.12,3,0,4,0.45
2013-1-6,54,42,31,44,38,29,96,87,60,30.22,30.11,3,0,4,0.02
2013-1-7,57,41,30,46,37,28,96,86,61,30.28,30.18,3,0,6,0.01
2013-1-8,62,43,32,48,39,31,96,86,56,30.28,30.13,2,0,4,0.01
2013-1-9,50,42,35,46,37,28,97,82,49,30.19,29.97,10,2,12,0.00
2013-1-10,50,37,27,31,26,22,92,69,33,30.21,30.07,7,2,11,0.01
2013-1-11,50,35,24,33,27,21,91,76,44,30.27,30.13,3,1,5,0.00
2013-1-12,49,33,23,31,23,15,91,71,26,30.29,30.15,4,0,5,0.00
2013-1-13,51,33,17,26,15,4,88,55,15,30.32,30.21,10,2,15,0.01
2013-1-14,55,41,27,22,12,5,77,35,15,30.42,30.29,13,4,18,0.00
2013-1-15,58,35,22,30,24,19,87,68,29,30.52,30.41,4,1,5,0.00
2013-1-16,69,39,24,35,25,16,91,65,14,30.46,30.28,7,1,11,0.00
2013-1-17,71,39,22,32,23,12,89,62,11,30.32,30.16,5,0,6,0.00
2013-1-18,66,38,21,32,24,18,88,64,21,30.30,30.16,2,0,4,0.00
2013-1-19,66,37,20,31,23,17,89,65,16,30.33,30.19,2,0,3,0.00
2013-1-20,65,38,21,32,24,18,88,64,20,30.32,30.14,2,0,5,0.00
2013-1-21,65,38,21,34,25,18,90,67,22,30.24,30.13,3,0,5,0.01
2013-1-22,65,40,23,36,28,20,91,68,22,30.19,30.04,2,0,4,0.00
2013-1-23,50,44,38,46,40,32,96,85,65,30.14,30.01,4,0,6,0.49
2013-1-24,60,51,46,53,7,-100,97,65,65,30.21,30.11,4,0,5,0.04
2013-1-25,62,52,44,52,40,-100,96,82,64,30.21,30.06,4,0,5,0.00
2013-1-26,59,46,36,42,0,-100,96,49,30,30.06,29.94,9,2,15,0.01
2013-1-27,55,40,27,35,29,23,93,70,29,30.19,30.06,6,1,10,0.00
2013-1-28,57,43,29,36,32,26,92,68,34,30.31,30.19,7,2,11,0.00
2013-1-29,65,44,30,42,34,28,93,71,33,30.38,30.26,6,1,9,0.00
2013-1-30,72,48,34,43,33,18,94,66,13,30.37,30.24,6,1,8,0.00
2013-1-31,66,43,28,42,34,26,93,73,33,30.35,30.20,4,0,6,0.01
2013-2-1,68,43,27,41,33,25,93,72,27,30.28,30.14,4,0,6,0.00
2013-2-2,66,44,32,44,35,30,93,76,35,30.33,30.21,2,0,5,0.00
2013-2-3,66,43,29,43,35,27,95,77,38,30.28,30.12,2,0,5,0.00
2013-2-4,67,45,30,45,35,28,95,75,29,30.20,30.06,3,0,6,0.01
2013-2-5,61,41,28,44,35,26,95,81,47,30.19,30.03,10,1,13,0.00
2013-2-6,61,41,27,38,32,25,93,74,33,30.22,30.09,5,1,8,0.01
2013-2-7,54,41,30,44,32,27,96,76,35,30.17,30.01,7,2,14,0.04
2013-2-8,57,41,28,36,26,15,92,60,20,30.03,29.95,11,3,15,0.00
2013-2-9,60,44,29,24,20,12,75,42,16,30.13,30.02,11,4,17,0.00
2013-2-10,63,40,24,31,24,19,87,58,18,30.16,30.03,11,2,17,0.00
2013-2-11,66,43,27,32,24,18,84,56,16,30.26,30.13,12,2,16,0.00
2013-2-12,64,41,25,36,28,22,88,66,27,30.40,30.27,4,0,5,0.00
2013-2-13,71,45,27,41,32,24,91,68,22,30.38,30.20,4,1,6,0.00
2013-2-14,73,55,34,37,32,27,92,48,19,30.27,30.16,11,3,21,0.00
2013-2-15,74,50,32,38,31,27,83,57,19,30.30,30.22,4,1,7,0.00
2013-2-16,70,46,30,41,34,28,92,68,24,30.30,30.06,6,0,7,0.00
2013-2-17,69,47,29,41,29,18,92,61,15,30.07,29.96,9,1,13,0.00
2013-2-18,54,48,34,40,37,30,85,68,53,30.01,29.89,7,2,9,0.00
2013-2-19,48,38,28,40,31,24,94,78,42,29.95,29.74,11,2,18,0.11
2013-2-20,59,40,25,37,27,23,92,67,25,30.07,29.88,8,2,13,0.01
2013-2-21,62,42,26,32,25,14,91,60,16,30.21,30.07,11,2,13,0.00
2013-2-22,67,48,28,38,32,25,90,59,27,30.28,30.14,8,2,9,0.00
2013-2-23,58,46,32,36,25,9,87,51,14,30.28,30.15,12,3,19,0.00
2013-2-24,66,48,32,28,19,9,73,38,12,30.29,30.15,18,4,26,0.00
2013-2-25,66,43,27,36,27,23,85,59,22,30.29,30.17,8,2,13,0.00
2013-2-26,70,44,25,28,19,10,88,49,10,30.27,30.15,15,3,21,0.00
2013-2-27,71,47,26,38,28,18,81,54,16,30.38,30.25,5,1,7,0.00
2013-2-28,73,56,43,47,42,38,85,63,33,30.45,30.35,5,1,7,0.00
2013-3-1,75,52,34,47,39,32,93,68,27,30.45,30.24,4,0,6,0.00
2013-3-2,70,54,39,49,43,36,92,71,41,30.30,30.06,5,0,8,0.00
2013-3-3,66,54,41,55,46,38,89,74,46,30.08,30.00,6,1,11,0.05
2013-3-4,65,47,33,48,38,31,94,75,41,30.15,30.04,6,1,12,0.01
2013-3-5,55,43,27,44,35,25,92,75,54,30.07,29.79,7,3,13,0.28
2013-3-6,54,47,32,45,37,30,91,72,48,30.06,29.79,11,4,18,0.33
2013-3-7,54,41,29,38,32,27,94,74,42,30.03,29.91,5,1,7,0.00
2013-3-8,66,46,28,38,32,23,93,64,22,30.06,29.84,7,2,13,0.01
2013-3-9,71,49,31,38,29,14,92,57,12,30.35,30.06,13,3,19,0.00
2013-3-10,75,50,29,41,31,21,92,58,14,30.40,30.23,5,1,13,0.00
2013-3-11,76,52,31,44,36,29,92,62,22,30.30,30.09,6,1,8,0.00
2013-3-12,78,55,35,50,42,33,92,67,27,30.19,30.06,5,0,8,0.00
2013-3-13,79,57,38,50,43,36,94,67,27,30.20,30.06,5,1,7,0.00
2013-3-14,77,56,40,50,43,37,93,67,30,30.17,30.09,5,1,5,0.00
2013-3-15,78,57,39,44,40,35,88,59,23,30.15,30.01,8,2,13,0.00
2013-3-16,78,58,37,45,36,22,92,52,13,30.10,29.99,10,3,18,0.00
2013-3-17,72,54,35,39,33,25,87,53,18,30.15,30.02,6,2,8,0.00
2013-3-18,69,53,34,44,38,32,91,62,28,30.13,30.01,4,1,8,0.00
2013-3-19,64,52,39,49,40,33,92,65,38,30.13,30.06,4,0,10,0.12
2013-3-20,61,52,45,52,48,42,94,85,68,30.13,30.06,6,1,8,0.10
2013-3-21,69,49,33,44,32,16,96,63,14,30.16,30.00,8,2,10,0.01
2013-3-22,66,47,31,34,22,4,91,50,9,30.16,30.05,13,3,24,0.00
2013-3-23,71,50,30,38,28,15,82,51,13,30.18,30.02,6,1,9,0.00
2013-3-24,74,54,34,44,37,28,90,59,24,30.12,29.94,6,1,11,0.00
2013-3-25,67,51,34,45,38,32,92,65,36,30.01,29.90,6,1,11,0.00
2013-3-26,71,51,34,45,39,32,92,67,34,30.00,29.91,6,1,10,0.00
2013-3-27,63,51,38,48,42,35,89,75,54,30.02,29.95,6,2,12,0.00
2013-3-28,62,50,41,53,45,38,93,83,56,30.13,30.02,6,1,7,0.13
2013-3-29,77,56,38,52,44,37,97,71,31,30.15,30.01,4,1,9,0.01
2013-3-30,71,57,49,55,49,46,93,77,44,30.06,29.99,5,1,8,0.12
2013-3-31,64,55,49,52,50,46,96,85,55,30.09,30.01,6,1,7,0.16
2013-4-1,66,55,46,50,49,44,96,81,52,30.16,30.06,5,1,10,0.03
2013-4-2,73,55,41,52,46,40,96,75,42,30.20,30.06,6,1,9,0.01
2013-4-3,74,58,41,52,47,39,96,71,36,30.15,29.97,6,1,9,0.00
2013-4-4,63,56,51,53,50,47,95,82,65,30.11,29.98,6,1,10,0.47
2013-4-5,65,53,42,51,46,40,96,78,50,30.18,30.10,8,2,16,0.00
2013-4-6,69,60,49,51,47,42,89,63,39,30.17,30.09,8,3,12,0.00
2013-4-7,65,56,49,49,46,39,88,69,53,30.16,29.79,9,4,13,0.01
2013-4-8,68,55,43,44,28,6,84,42,9,30.06,29.76,16,6,23,0.01
2013-4-9,75,62,51,39,26,14,64,28,10,30.13,30.06,15,6,22,0.00
2013-4-10,87,66,42,48,41,35,83,47,16,30.21,29.99,10,3,13,0.00
2013-4-11,79,64,47,46,37,11,82,44,9,30.03,29.80,9,3,12,0.00
2013-4-12,82,58,38,47,40,31,90,61,16,29.92,29.78,7,1,12,0.00
2013-4-13,79,61,42,46,40,35,88,50,25,29.88,29.76,9,3,12,0.00
2013-4-14,73,57,39,41,36,22,81,49,20,29.92,29.80,14,5,26,0.00
2013-4-15,62,48,34,39,31,21,90,56,22,29.97,29.83,14,5,17,0.00
2013-4-16,65,52,33,31,22,8,84,36,11,30.21,29.98,13,5,24,0.00
2013-4-17,68,55,40,29,21,11,57,30,11,30.31,30.20,16,5,26,0.00
2013-4-18,78,57,36,40,31,24,77,45,16,30.30,30.16,8,2,13,0.00
2013-4-19,83,61,39,48,40,35,87,52,23,30.25,30.06,10,2,17,0.00
2013-4-20,85,63,42,46,36,18,86,47,9,30.15,29.94,10,2,15,0.00
2013-4-21,89,65,42,48,38,23,88,49,11,30.06,29.91,8,2,12,0.00
2013-4-22,88,67,44,48,31,11,87,41,6,30.00,29.85,13,3,17,0.00
2013-4-23,86,70,51,43,22,7,67,21,7,29.96,29.80,13,4,16,0.00
2013-4-24,85,63,40,45,33,15,87,45,10,29.90,29.76,9,3,15,0.00
2013-4-25,76,57,38,47,42,34,89,62,30,30.09,29.90,6,2,10,0.00
2013-4-26,83,61,39,52,44,36,89,60,27,30.20,30.09,6,1,11,0.00
2013-4-27,87,66,43,52,45,36,90,55,17,30.21,30.02,6,1,9,0.00
2013-4-28,92,68,45,54,44,27,87,52,10,30.05,29.86,7,1,10,0.00
2013-4-29,92,71,49,52,46,36,87,49,16,29.92,29.73,7,2,11,0.00
2013-4-30,84,69,49,49,23,-3,85,32,4,29.91,29.78,15,5,20,0.00
2013-5-1,85,74,64,23,13,5,15,10,7,30.08,29.91,15,7,23,0.00
2013-5-2,92,72,48,38,24,10,49,21,7,30.17,30.04,11,2,13,0.00
2013-5-3,93,66,42,40,32,20,73,40,7,30.08,29.78,8,2,13,0.00
2013-5-4,88,76,53,36,26,14,52,20,7,29.69,29.51,10,4,18,0.00
2013-5-5,67,58,46,48,44,37,85,62,43,29.81,29.56,7,2,13,0.00
2013-5-6,69,58,48,50,47,43,86,68,42,29.97,29.82,6,1,8,0.00
2013-5-7,72,60,51,54,47,44,84,65,39,30.03,29.96,5,1,11,0.00
2013-5-8,73,61,47,52,49,43,84,66,46,30.09,30.02,6,1,9,0.00
2013-5-9,81,65,46,55,50,43,89,63,37,30.12,29.99,7,1,9,0.00
2013-5-10,90,69,48,57,51,44,88,59,28,30.14,30.01,7,1,11,0.00
2013-5-11,92,70,51,58,49,43,87,54,19,30.11,30.00,6,1,9,0.00
2013-5-12,92,70,46,57,46,38,84,50,16,30.11,29.96,6,1,11,0.00
2013-5-13,90,70,46,52,48,42,88,51,23,30.05,29.89,9,2,17,0.00
2013-5-14,91,71,51,54,46,36,83,48,16,29.92,29.82,9,2,13,0.00
2013-5-15,83,63,43,46,42,38,81,50,23,29.98,29.91,7,3,12,0.00
2013-5-16,75,65,50,48,44,35,72,48,25,29.97,29.88,9,4,14,0.00
2013-5-17,75,58,41,45,40,34,87,55,24,30.04,29.94,7,2,12,0.00
2013-5-18,83,63,40,46,40,32,84,49,18,30.12,30.03,11,3,20,0.00
2013-5-19,86,66,44,45,31,17,81,36,9,30.14,29.96,12,3,17,0.00
2013-5-20,91,71,52,42,34,21,53,31,8,30.03,29.85,12,2,13,0.00
2013-5-21,76,64,51,41,35,20,65,38,14,29.98,29.85,14,6,20,0.00
2013-5-22,71,56,38,36,28,14,66,37,14,30.02,29.85,11,4,17,0.00
2013-5-23,74,57,40,39,36,31,79,49,20,30.00,29.89,8,3,12,0.00
2013-5-24,78,58,37,41,36,26,84,49,17,30.00,29.87,6,2,13,0.00
2013-5-25,77,61,40,44,40,34,82,49,24,29.99,29.90,7,3,9,0.00
2013-5-26,76,62,46,47,41,34,83,50,23,30.07,29.98,9,3,15,0.00
2013-5-27,66,56,44,54,46,37,88,70,56,30.08,29.99,8,2,14,0.02
2013-5-28,78,65,52,54,51,46,93,63,37,29.99,29.87,6,1,9,0.01
2013-5-29,82,69,56,53,45,38,67,44,22,29.92,29.83,10,4,14,0.00
2013-5-30,85,66,44,46,40,30,84,47,16,29.97,29.87,8,3,11,0.00
2013-5-31,96,73,47,47,36,11,78,37,5,30.02,29.86,7,2,12,0.00
2013-6-1,98,78,51,51,43,32,75,35,11,29.92,29.73,11,3,15,0.00
2013-6-2,94,76,55,50,45,41,67,38,17,29.76,29.58,6,2,9,0.00
2013-6-3,92,72,51,52,48,38,80,48,16,29.81,29.66,8,2,16,0.00
2013-6-4,85,66,48,51,47,42,81,53,29,29.90,29.81,5,2,10,0.00
2013-6-5,90,70,49,56,51,44,84,55,29,29.96,29.81,9,2,11,0.00
2013-6-6,96,75,53,57,53,47,81,50,24,29.90,29.74,5,1,10,0.00
2013-6-7,106,80,54,56,51,43,83,46,13,29.85,29.67,6,1,8,0.00
2013-6-8,111,86,61,58,50,39,73,37,9,29.72,29.59,9,2,15,0.00
2013-6-9,76,67,58,54,51,49,77,59,44,29.83,29.72,6,2,13,0.00
2013-6-10,63,59,50,53,51,46,86,75,66,29.96,29.75,9,2,12,0.02
2013-6-11,84,65,45,55,49,42,92,62,27,29.98,29.85,7,1,10,0.00
2013-6-12,87,68,45,49,41,30,88,46,13,29.94,29.86,9,3,14,0.00
2013-6-13,85,69,46,44,38,26,70,37,13,30.06,29.95,8,3,14,0.00
2013-6-14,92,72,53,43,31,10,65,29,5,30.00,29.77,7,2,13,0.00
2013-6-15,89,69,44,46,38,32,67,37,15,29.93,29.81,9,2,11,0.00
2013-6-16,90,71,46,45,38,32,71,36,14,30.03,29.93,10,3,15,0.00
2013-6-17,84,68,46,48,42,36,71,43,19,30.03,29.93,13,3,21,0.00
2013-6-18,77,63,46,48,40,34,81,48,22,29.98,29.88,11,5,16,0.00
2013-6-19,80,65,46,45,39,29,76,43,18,30.04,29.94,8,4,12,0.00
2013-6-20,85,68,47,46,40,31,77,41,17,30.00,29.87,8,3,16,0.00
2013-6-21,90,70,48,47,38,28,72,38,12,29.96,29.84,6,2,10,0.00
2013-6-22,93,73,49,46,40,28,70,36,11,29.92,29.76,10,2,12,0.00
2013-6-23,74,64,54,57,50,41,83,61,42,29.80,29.76,7,2,12,0.00
2013-6-24,62,60,58,57,54,52,89,80,69,29.90,29.75,4,0,5,0.15
2013-6-25,71,64,58,62,59,55,94,83,69,29.97,29.88,6,1,12,0.11
2013-6-26,82,71,58,61,58,55,93,68,39,30.03,29.97,6,2,11,0.00
2013-6-27,98,76,53,61,54,46,92,56,19,30.08,29.96,6,1,11,0.00
2013-6-28,105,84,59,61,51,37,85,42,11,30.02,29.84,9,2,17,0.00
2013-6-29,105,85,60,55,50,44,69,35,16,29.89,29.73,7,2,13,0.00
2013-6-30,104,84,60,56,52,43,69,38,14,29.81,29.68,7,2,13,0.00
2013-7-1,106,84,59,59,51,32,72,39,8,29.81,29.74,7,1,10,0.00
2013-7-2,107,87,69,61,57,52,66,39,17,29.84,29.75,7,2,17,0.00
2013-7-3,110,87,65,62,57,50,70,41,15,29.84,29.67,7,2,11,0.00
2013-7-4,109,92,71,62,49,33,61,28,8,29.74,29.58,12,3,17,0.00
2013-7-5,92,75,56,55,48,40,63,40,25,29.69,29.60,8,2,13,0.00
2013-7-6,90,72,57,56,53,50,79,55,28,29.76,29.65,6,2,9,0.00
2013-7-7,94,74,51,56,47,17,85,48,6,29.80,29.71,6,1,10,0.00
2013-7-8,94,71,48,50,42,16,80,45,7,29.93,29.81,9,2,13,0.00
2013-7-9,99,75,48,47,40,29,79,37,9,30.02,29.89,6,1,9,0.00
2013-7-10,97,75,51,42,34,23,57,28,9,29.93,29.82,10,2,13,0.00
2013-7-11,90,68,44,50,39,28,63,39,13,29.90,29.78,6,2,12,0.00
2013-7-12,90,70,49,53,49,42,83,52,19,29.90,29.78,8,2,11,0.00
2013-7-13,94,73,51,50,45,30,82,43,11,29.92,29.83,8,1,11,0.00
2013-7-14,94,73,48,47,40,36,69,37,13,29.95,29.81,7,1,11,0.00
2013-7-15,87,67,48,50,44,39,73,47,23,29.86,29.73,8,2,13,0.00
2013-7-16,81,64,47,51,47,42,84,58,27,29.99,29.81,6,2,12,0.00
2013-7-17,92,70,45,50,44,36,87,49,15,30.07,29.95,7,1,9,0.00
2013-7-18,96,74,48,49,44,34,78,42,13,30.03,29.85,6,2,10,0.00
2013-7-19,101,78,52,52,47,40,75,41,14,29.90,29.73,7,1,9,0.00
2013-7-20,104,79,56,54,50,46,74,42,15,29.79,29.63,8,1,11,0.00
2013-7-21,98,78,59,56,52,45,72,43,22,29.82,29.67,7,2,14,0.00
2013-7-22,94,74,55,54,46,39,64,42,16,29.93,29.82,7,2,14,0.00
2013-7-23,93,78,65,52,45,38,57,35,16,29.96,29.87,7,1,12,0.00
2013-7-24,98,80,59,52,48,45,62,37,18,29.94,29.82,7,2,12,0.00
2013-7-25,100,81,61,55,52,49,67,40,19,29.93,29.83,9,2,17,0.00
2013-7-26,99,78,56,55,51,47,75,44,18,30.01,29.89,6,2,14,0.00
2013-7-27,94,77,56,55,52,48,78,47,21,29.95,29.76,7,2,12,0.00
2013-7-28,92,72,54,56,52,47,81,52,24,29.81,29.69,9,2,14,0.00
2013-7-29,82,66,50,54,51,45,86,62,35,29.96,29.78,6,2,14,0.00
2013-7-30,90,70,49,55,49,43,86,53,20,30.07,29.94,7,2,10,0.00
2013-7-31,92,71,51,53,46,37,83,49,15,30.03,29.90,9,2,14,0.00
2013-8-1,88,69,46,48,44,39,77,46,22,30.00,29.89,8,2,17,0.00
2013-8-2,92,70,48,49,43,36,76,44,15,29.95,29.82,6,2,10,0.00
2013-8-3,92,72,50,49,45,36,77,45,14,29.93,29.83,8,1,12,0.00
2013-8-4,90,70,49,53,46,37,82,49,17,29.95,29.86,7,2,12,0.00
2013-8-5,90,68,45,49,42,33,81,46,15,29.99,29.86,7,1,13,0.00
2013-8-6,85,66,45,50,44,37,76,50,25,29.99,29.89,9,2,12,0.00
2013-8-7,78,62,47,53,50,43,87,65,39,30.07,29.99,7,2,13,0.00
2013-8-8,83,64,46,55,48,42,88,61,26,30.01,29.87,6,1,11,0.00
2013-8-9,84,68,47,54,48,43,86,54,27,29.93,29.85,6,2,10,0.00
2013-8-10,86,68,49,53,49,43,84,55,25,30.01,29.92,8,1,13,0.00
2013-8-11,90,71,50,53,48,42,83,49,20,30.00,29.86,6,1,10,0.00
2013-8-12,91,70,49,49,43,35,80,45,15,29.96,29.87,6,1,11,0.00
2013-8-13,96,73,49,47,42,32,73,39,11,29.98,29.84,7,1,11,0.00
2013-8-14,97,73,50,47,43,40,69,40,15,29.94,29.81,8,1,13,0.00
2013-8-15,95,74,52,58,50,44,75,47,20,29.92,29.83,8,1,11,0.00
2013-8-16,96,76,57,59,50,37,83,47,16,29.94,29.86,6,1,10,0.00
2013-8-17,94,76,55,55,50,44,71,44,23,29.94,29.78,7,1,11,0.00
2013-8-18,103,80,56,54,51,47,77,44,16,29.87,29.72,6,1,11,0.00
2013-8-19,102,81,63,56,52,45,69,42,15,29.86,29.74,7,1,9,0.00
2013-8-20,96,78,64,58,54,47,68,47,26,29.84,29.72,7,2,11,0.00
2013-8-21,90,71,56,56,48,38,71,47,17,29.88,29.79,6,2,12,0.00
2013-8-22,88,70,51,52,46,40,69,45,22,29.91,29.80,6,2,11,0.00
2013-8-23,90,70,49,52,48,44,82,50,21,29.89,29.73,6,2,12,0.00
2013-8-24,88,69,50,53,48,43,79,50,24,29.84,29.76,7,2,11,0.00
2013-8-25,82,68,55,57,51,44,80,57,28,29.91,29.84,7,2,11,0.00
2013-8-26,89,67,47,53,47,42,86,55,20,30.00,29.84,6,1,10,0.00
2013-8-27,91,70,48,51,45,36,83,48,16,29.89,29.75,7,1,14,0.00
2013-8-28,91,69,48,56,48,43,81,53,25,29.89,29.81,6,1,12,0.00
2013-8-29,91,73,51,57,53,47,86,53,25,30.01,29.89,7,1,9,0.00
2013-8-30,97,76,54,57,52,46,84,50,19,30.03,29.85,6,1,11,0.00
2013-8-31,94,74,52,54,46,32,80,43,12,29.95,29.81,7,2,10,0.00
2013-9-1,89,73,58,54,47,40,63,42,19,29.90,29.80,7,1,11,0.00
2013-9-2,85,68,55,55,52,48,79,59,30,29.92,29.84,4,0,9,0.00
2013-9-3,86,63,56,52,50,43,81,67,22,29.93,29.86,4,1,4,0.00
2013-9-4,58,57,56,48,47,46,72,69,67,29.94,29.94,2,0,4,0.00
2013-9-5,87,78,61,49,44,40,58,31,20,29.97,29.89,7,3,11,0.00
2013-9-6,94,71,48,50,40,27,81,42,10,30.00,29.81,7,1,10,0.00
2013-9-7,98,71,46,45,38,18,73,38,6,29.91,29.76,5,1,8,0.00
2013-9-8,101,74,49,45,40,31,65,35,9,29.88,29.71,5,1,7,0.00
2013-9-9,103,77,52,46,42,37,66,34,11,29.80,29.63,8,1,13,0.00
2013-9-10,93,71,53,54,47,40,79,46,19,29.87,29.68,8,2,11,0.00
2013-9-11,72,55,49,56,49,46,88,82,60,29.97,29.87,5,0,7,0.00
2013-9-16,88,78,60,52,49,45,63,39,25,29.85,29.72,5,1,8,0.00
2013-9-17,81,65,46,50,45,40,85,53,25,29.89,29.75,9,3,16,0.00
2013-9-18,90,67,47,46,37,20,81,43,8,29.93,29.77,10,2,13,0.00
2013-9-19,92,66,42,44,34,25,77,40,9,29.88,29.72,5,1,9,0.00
2013-9-20,80,61,39,56,43,29,73,54,23,29.82,29.75,8,2,12,0.00
2013-9-21,68,59,50,59,55,48,94,85,52,29.90,29.77,6,1,8,0.63
2013-9-22,76,58,43,52,46,40,96,69,27,30.01,29.90,7,1,10,0.01
2013-9-23,84,64,46,56,50,44,93,65,28,30.04,29.89,5,1,8,0.00
2013-9-24,79,64,50,54,46,36,91,58,22,29.96,29.84,12,4,17,0.00
2013-9-25,72,59,45,44,38,30,86,51,22,29.93,29.79,8,3,16,0.00
2013-9-26,74,60,43,39,32,23,81,40,15,30.02,29.87,11,4,23,0.00
2013-9-27,80,60,43,35,30,22,67,39,12,30.11,29.99,13,2,15,0.00
2013-9-28,83,60,40,42,34,26,80,45,14,30.11,29.98,6,1,12,0.00
2013-9-29,72,61,49,59,52,42,87,74,55,30.08,30.02,7,2,12,0.00
2013-9-30,74,66,51,59,56,47,86,71,52,30.04,29.95,8,2,14,0.00
2013-10-1,81,59,41,48,43,36,93,62,20,30.01,29.90,6,1,11,0.00
2013-10-2,82,61,43,47,38,18,85,50,10,30.02,29.89,9,2,14,0.00
2013-10-3,72,60,38,38,28,20,82,36,15,30.09,29.99,19,6,28,0.00
2013-10-4,80,70,62,23,20,14,21,16,10,30.12,30.05,15,7,23,0.00
2013-10-5,84,62,40,28,22,14,51,26,8,30.22,30.10,5,1,8,0.00
2013-10-6,84,58,34,33,27,21,71,39,10,30.18,30.00,4,0,8,0.00
2013-10-7,84,59,36,34,27,16,70,38,8,30.03,29.84,4,1,8,0.00
2013-10-8,80,58,38,39,33,27,74,45,15,29.92,29.71,6,1,8,0.00
2013-10-9,48,48,48,36,36,36,65,64,64,29.70,29.69,3,3,3,0.00
2013-10-10,76,72,66,33,32,30,28,23,20,29.89,29.87,5,2,9,0.00
2013-10-11,75,54,36,41,37,32,86,56,24,30.09,29.95,6,1,9,0.00
2013-10-12,76,56,36,43,37,32,84,54,21,30.02,29.84,9,2,12,0.00
2013-10-13,75,57,42,40,32,25,78,44,16,30.08,29.93,11,3,15,0.00
2013-10-14,80,54,35,36,26,16,73,41,10,30.15,30.00,7,2,10,0.00
2013-10-15,80,56,34,30,22,16,68,35,10,30.08,29.97,11,2,14,0.00
2013-10-16,82,56,34,31,25,21,64,36,11,30.12,30.01,4,0,6,0.00
2013-10-17,84,56,34,35,28,25,72,42,12,30.13,29.94,4,0,7,0.00
2013-10-18,85,56,35,36,31,27,76,45,13,30.08,29.96,3,0,5,0.00
2013-10-19,85,56,34,39,32,26,81,47,12,30.12,29.98,3,0,6,0.00
2013-10-20,87,57,34,37,32,28,79,47,12,30.05,29.87,3,0,6,0.00
2013-10-21,85,59,37,43,36,31,80,49,16,30.01,29.87,2,0,8,0.00
2013-10-22,85,58,37,40,35,26,84,50,12,30.04,29.89,2,0,5,0.00
2013-10-23,87,56,35,36,31,23,79,47,10,29.98,29.84,5,0,8,0.00
2013-10-24,78,54,34,40,34,28,79,52,21,30.08,29.94,5,0,8,0.00
2013-10-25,80,54,35,40,35,30,84,55,18,30.19,30.06,3,0,7,0.00
2013-10-26,83,55,34,39,33,28,84,51,14,30.19,30.00,3,0,6,0.00
2013-10-27,71,52,34,44,34,26,81,54,27,30.04,29.58,9,2,17,0.00
2013-10-28,65,50,34,41,35,29,84,59,28,29.84,29.64,5,0,8,0.00
2013-10-29,62,46,33,43,37,30,89,71,46,30.07,29.84,4,0,9,0.00
2013-10-30,67,48,32,43,37,29,89,68,36,30.18,30.07,3,0,5,0.00
2013-10-31,76,51,32,44,36,29,89,62,26,30.22,30.06,3,0,5,0.00
2013-11-1,77,52,34,41,36,30,86,59,25,30.20,30.03,2,0,5,0.00
2013-11-2,77,54,34,44,37,30,86,58,26,30.06,29.88,7,1,9,0.00
2013-11-3,65,48,32,37,23,12,87,47,13,30.05,29.93,17,3,21,0.00
2013-11-4,69,50,35,26,22,15,65,39,13,30.13,29.94,13,3,22,0.00
2013-11-5,75,54,38,33,29,24,64,41,18,30.25,30.11,5,0,10,0.00
2013-11-6,73,53,37,38,33,28,73,51,25,30.30,30.18,1,0,4,0.00
2013-11-7,77,55,41,39,35,33,73,51,21,30.21,30.05,7,0,9,0.00
2013-11-8,76,52,36,46,38,31,84,62,28,30.11,29.93,5,0,9,0.00
2013-11-9,74,51,34,43,35,30,87,61,27,30.07,29.97,2,0,8,0.00
2013-11-10,73,49,33,41,34,25,88,62,18,30.14,30.05,5,0,10,0.00
2013-11-11,70,49,30,38,33,26,86,59,27,30.21,30.08,1,0,5,0.00
2013-11-12,74,55,41,40,37,32,72,52,23,30.29,30.19,3,0,4,0.00
2013-11-13,82,53,34,44,36,29,84,59,21,30.29,30.09,2,0,4,0.00
2013-11-14,73,52,39,44,37,26,84,60,28,30.12,29.87,8,1,12,0.00
2013-11-15,69,49,32,35,26,18,77,46,15,29.88,29.70,6,0,10,0.00
2013-11-16,67,46,30,40,31,23,83,59,24,29.94,29.78,8,1,11,0.00
2013-11-17,65,45,30,42,35,27,90,71,39,30.11,29.94,2,0,3,0.00
2013-11-18,60,44,30,44,37,27,90,76,51,30.17,30.08,4,0,4,0.04
2013-11-19,57,52,46,53,50,44,95,91,80,30.12,29.94,1,0,3,0.26
2013-11-20,59,55,51,56,53,47,96,93,77,29.94,29.84,1,0,3,0.23
2013-11-21,60,57,52,48,11,5,87,17,13,30.06,29.90,16,8,27,0.01
2013-11-22,56,55,55,5,4,4,13,12,12,30.06,30.06,10,8,12,0.00
2013-11-23,70,55,32,24,14,1,70,28,7,30.13,29.97,13,3,21,0.00
2013-11-24,63,40,25,37,28,20,86,65,30,30.30,30.13,3,0,6,0.00
2013-11-25,62,40,25,38,30,22,89,71,30,30.38,30.27,5,0,5,0.00
2013-11-26,64,42,28,38,30,25,91,68,28,30.33,30.10,2,0,5,0.00
2013-11-27,64,40,29,36,30,26,90,71,32,30.11,29.89,3,0,4,0.00
2013-11-28,72,46,31,39,32,28,90,65,22,30.12,29.93,2,0,3,0.00
2013-11-29,70,45,30,40,32,27,91,67,27,30.26,30.11,4,0,7,0.00
2013-11-30,69,46,32,40,33,28,88,68,27,30.32,30.19,3,0,6,0.00
2013-12-1,72,46,31,42,34,28,91,68,27,30.38,30.23,4,0,6,0.00
2013-12-2,70,47,29,46,37,26,92,72,28,30.26,29.95,8,1,15,0.00
2013-12-3,56,46,32,43,26,4,88,48,13,29.98,29.83,9,2,15,0.00
2013-12-4,51,33,18,17,10,-4,70,44,10,30.14,29.97,9,1,15,0.00
2013-12-5,50,27,12,16,10,5,75,53,18,30.21,30.12,3,0,4,0.00
2013-12-6,46,31,13,40,23,8,94,75,41,30.24,29.93,6,0,9,0.43
2013-12-7,44,33,22,38,23,14,94,71,30,30.31,29.92,12,2,17,0.01
2013-12-8,45,28,18,26,16,8,88,66,22,30.38,30.27,7,1,11,0.00
2013-12-9,55,34,18,17,11,1,81,47,11,30.48,30.36,8,2,12,0.00
2013-12-10,55,31,16,23,17,11,84,62,21,30.48,30.23,1,0,3,0.00
2013-12-11,61,35,20,28,22,16,87,65,23,30.30,30.19,2,0,3,0.00
2013-12-12,60,35,20,30,22,16,88,65,22,30.33,30.18,3,0,7,0.00
2013-12-13,66,37,21,32,25,18,88,67,21,30.38,30.25,2,0,4,0.00
2013-12-14,65,38,25,35,26,22,89,67,24,30.45,30.32,2,0,4,0.00
2013-12-15,65,38,22,34,26,18,89,68,27,30.44,30.27,1,0,3,0.00
2013-12-16,72,41,25,33,26,22,89,63,17,30.32,30.14,1,0,3,0.00
2013-12-17,68,42,28,35,28,24,83,63,24,30.24,30.09,1,0,2,0.00
2013-12-18,64,43,30,36,31,26,86,65,31,30.09,29.75,4,0,6,0.00
2013-12-19,58,49,32,33,20,4,85,37,15,29.98,29.74,12,5,21,0.00
2013-12-20,69,52,35,22,6,-12,59,21,5,30.03,29.93,12,4,21,0.00
2013-12-21,68,43,28,42,31,21,86,64,33,30.13,29.98,2,0,4,0.00
2013-12-22,75,48,31,38,33,28,90,63,24,30.31,30.13,13,2,22,0.00
2013-12-23,66,43,29,41,33,26,90,70,34,30.43,30.31,1,0,5,0.00
2013-12-24,75,44,30,40,26,14,90,60,10,30.39,30.22,11,1,18,0.00
2013-12-25,70,40,24,28,22,19,83,56,15,30.36,30.22,1,0,5,0.00
2013-12-26,70,39,22,27,22,17,80,56,18,30.33,30.19,1,0,2,0.00
2013-12-27,50,28,23,27,20,18,82,74,42,30.32,30.27,0,0,1,0.00
2013-12-28,70,58,48,23,17,11,29,20,14,30.14,30.08,7,4,12,0.00
2013-12-29,70,47,29,18,12,1,54,30,7,30.24,30.10,12,2,15,0.00
2013-12-30,66,40,22,27,19,13,69,47,17,30.30,30.20,3,0,5,0.00
2013-12-31,66,42,29,30,24,20,73,54,18,30.31,30.17,3,0,4,0.00
2014-1-1,68,40,24,30,23,18,79,56,22,30.27,30.14,2,0,3,0.00
2014-1-2,69,43,26,33,27,21,82,58,22,30.24,30.09,1,0,2,0.00